Portada
METAR-TAF:

METAR-TAF

Aeroports :

Olive Branch Airport

Olive Branch, Mississipí, Estats Units d'Amèrica

latitud: 34-58-44N, longitud: 089-47-13W, altitud: 122 m

Observació

L'informe es va fer fa 1 hora i 6 minuts, a les 15:50 UTC
Vent 5 kt del Est
Temperatura 24°C
Humitat 41%
Pressió 1024 hPa
Visibilitat: 16.1 km
Escasses núvols a una alçada de 25000 ft

METAR: KOLV 011550Z 08005KT 10SM FEW250 24/10 A3023

Hora: 11:56 (16:56 UTC)


TAF: manca

Observacions i pronòstics meteorològics de més de 4000 aeroports (METAR i TAF).

Les estacions disponibles són els punts grocs i vermells al mapa.

Posi el ratolí al punt desitjat per veure el nom de l'estació.

Feu clic per veure les observacions i els pronòstics meteorològics.

Per canviar el mapa: feu clic els botons verds amb una creu de color negre per apropar; al botó verd amb un guió per allunyar la imatge; o en les fletxes verdes per a mapes adjacents.


METAR-TAF: